createdAt,value
2022-11-30T00:02:00.096Z,82.16
2022-11-30T00:04:28.695Z,82.20
2022-11-30T00:07:00.012Z,82.17
2022-11-30T00:09:28.472Z,81.65
2022-11-30T00:11:56.957Z,82.09
2022-11-30T00:14:25.435Z,82.13
2022-11-30T00:16:54.087Z,81.97
2022-11-30T00:19:22.657Z,81.74
2022-11-30T00:21:51.173Z,81.93
2022-11-30T00:24:19.626Z,81.62
2022-11-30T00:26:48.385Z,81.89
2022-11-30T00:29:16.904Z,82.07
2022-11-30T00:31:45.566Z,82.04
2022-11-30T00:34:14.188Z,81.97
2022-11-30T00:36:42.691Z,81.92
2022-11-30T00:39:14.206Z,81.83
2022-11-30T00:41:42.714Z,82.08
2022-11-30T00:44:11.426Z,81.80
2022-11-30T00:46:41.091Z,82.14
2022-11-30T00:51:53.088Z,81.90
2022-11-30T00:54:21.835Z,81.90
2022-11-30T00:56:50.265Z,81.81
2022-11-30T00:59:18.727Z,81.75
2022-11-30T01:01:48.524Z,81.70
2022-11-30T01:04:17.160Z,81.89
2022-11-30T01:06:45.884Z,81.90
2022-11-30T01:09:42.133Z,82.15
2022-11-30T01:12:10.547Z,81.96
2022-11-30T01:14:39.031Z,82.09
2022-11-30T01:17:07.638Z,82.36
2022-11-30T01:19:35.840Z,82.09
2022-11-30T01:22:04.247Z,82.11
2022-11-30T01:24:33.199Z,82.07
2022-11-30T01:27:01.728Z,81.91
2022-11-30T01:29:30.112Z,82.31
2022-11-30T01:31:58.568Z,82.10
2022-11-30T01:34:27.009Z,82.04
2022-11-30T01:36:55.515Z,82.26
2022-11-30T01:39:24.126Z,82.35
2022-11-30T01:41:54.598Z,82.29
2022-11-30T01:44:55.069Z,82.45
2022-11-30T01:47:27.673Z,82.33
2022-11-30T01:50:01.195Z,82.21
2022-11-30T01:52:35.636Z,82.59
2022-11-30T01:55:14.145Z,82.64
2022-11-30T01:57:48.154Z,82.67
2022-11-30T02:00:18.847Z,82.49
2022-11-30T02:02:56.652Z,82.68
2022-11-30T02:05:49.042Z,82.52
2022-11-30T02:11:07.678Z,82.53
2022-11-30T02:13:51.833Z,82.88
2022-11-30T02:16:26.793Z,82.84
2022-11-30T02:19:04.650Z,82.77
2022-11-30T02:21:45.630Z,82.53
2022-11-30T02:24:33.099Z,82.71
2022-11-30T02:27:14.792Z,82.76
2022-11-30T02:29:47.317Z,82.78
2022-11-30T02:32:28.738Z,82.75
2022-11-30T02:35:02.810Z,82.62
2022-11-30T02:37:33.923Z,82.66
2022-11-30T02:40:07.694Z,82.53
2022-11-30T02:42:37.222Z,82.68
2022-11-30T02:45:07.890Z,82.54
2022-11-30T02:47:41.089Z,82.65
2022-11-30T02:50:22.473Z,82.71
2022-11-30T02:52:51.944Z,82.81
2022-11-30T02:55:20.883Z,82.85
2022-11-30T02:57:49.340Z,82.82
2022-11-30T03:00:19.864Z,82.73
2022-11-30T03:03:00.601Z,82.67
2022-11-30T03:05:29.430Z,82.62
2022-11-30T03:07:57.952Z,82.61
2022-11-30T03:10:26.426Z,82.72
2022-11-30T03:12:58.409Z,82.84
2022-11-30T03:15:27.601Z,82.40
2022-11-30T03:17:56.065Z,82.57
2022-11-30T03:20:25.011Z,82.72
2022-11-30T03:22:53.711Z,82.65
2022-11-30T03:25:22.197Z,82.84
2022-11-30T03:27:51.037Z,82.58
2022-11-30T03:30:19.969Z,82.72
2022-11-30T03:32:50.882Z,82.84
2022-11-30T03:35:31.994Z,82.74
2022-11-30T03:38:00.760Z,82.98
2022-11-30T03:40:29.595Z,82.96
2022-11-30T03:42:58.225Z,82.78
2022-11-30T03:45:26.697Z,82.92
2022-11-30T03:47:55.389Z,83.07
2022-11-30T03:50:23.794Z,82.98
2022-11-30T03:52:52.252Z,82.76
2022-11-30T03:55:20.677Z,82.68
2022-11-30T03:57:49.273Z,83.09
2022-11-30T04:00:20.474Z,83.13
2022-11-30T04:02:52.042Z,83.17
2022-11-30T04:05:21.855Z,82.90
2022-11-30T04:07:50.351Z,82.96
2022-11-30T04:10:19.495Z,82.62
2022-11-30T04:12:48.007Z,82.68
2022-11-30T04:15:16.837Z,83.06
2022-11-30T04:17:45.467Z,82.82
2022-11-30T04:20:14.465Z,82.81
2022-11-30T04:22:45.449Z,82.72
2022-11-30T04:25:13.883Z,82.79
2022-11-30T04:27:44.598Z,82.56
2022-11-30T04:30:15.161Z,82.81
2022-11-30T04:32:43.642Z,82.88
2022-11-30T04:35:12.207Z,82.66
2022-11-30T04:37:40.952Z,82.91
2022-11-30T04:40:11.457Z,82.63
2022-11-30T04:42:40.934Z,82.82
2022-11-30T04:45:11.577Z,82.45
2022-11-30T04:47:40.186Z,82.53
2022-11-30T04:50:10.707Z,82.44
2022-11-30T04:52:39.207Z,82.67
2022-11-30T04:55:17.123Z,82.66
2022-11-30T04:57:47.357Z,82.48
2022-11-30T05:00:18.523Z,82.21
2022-11-30T05:02:52.555Z,82.61
2022-11-30T05:05:21.892Z,82.79
2022-11-30T05:07:54.948Z,82.75
2022-11-30T05:10:24.291Z,82.54
2022-11-30T05:12:53.068Z,82.72
2022-11-30T05:15:24.403Z,82.41
2022-11-30T05:17:59.366Z,82.17
2022-11-30T05:20:31.881Z,82.32
2022-11-30T05:23:20.693Z,82.45
2022-11-30T05:25:51.948Z,82.41
2022-11-30T05:28:20.641Z,82.58
2022-11-30T05:31:04.593Z,82.54
2022-11-30T05:33:33.956Z,82.38
2022-11-30T05:36:07.177Z,82.78
2022-11-30T05:38:38.731Z,82.58
2022-11-30T05:41:07.292Z,82.58
2022-11-30T05:43:36.205Z,82.67
2022-11-30T05:46:06.890Z,82.47
2022-11-30T05:48:35.659Z,82.46
2022-11-30T05:51:09.589Z,82.49
2022-11-30T05:53:38.615Z,82.45
2022-11-30T05:56:10.124Z,82.54
2022-11-30T05:58:38.842Z,82.68
2022-11-30T06:01:08.345Z,82.59
2022-11-30T06:03:36.799Z,82.73
2022-11-30T06:06:05.945Z,82.64
2022-11-30T06:08:34.439Z,82.62
2022-11-30T06:11:05.246Z,82.65
2022-11-30T06:13:40.921Z,82.09
2022-11-30T06:16:24.073Z,82.54
2022-11-30T06:19:29.278Z,82.46
2022-11-30T06:22:00.673Z,82.24
2022-11-30T06:24:50.194Z,82.49
2022-11-30T06:27:18.729Z,82.32
2022-11-30T06:29:47.176Z,82.50
2022-11-30T06:32:15.613Z,82.20
2022-11-30T06:34:44.223Z,82.33
2022-11-30T06:37:12.849Z,81.98
2022-11-30T06:40:05.563Z,82.15
2022-11-30T06:42:32.473Z,82.20
2022-11-30T06:45:00.886Z,82.34
2022-11-30T06:47:29.629Z,82.23
2022-11-30T06:49:58.389Z,82.03
2022-11-30T06:52:26.934Z,82.00
2022-11-30T06:54:55.428Z,82.25
2022-11-30T06:57:34.918Z,82.29
2022-11-30T07:00:05.616Z,82.16
2022-11-30T07:02:34.440Z,81.95
2022-11-30T07:05:04.030Z,81.94
2022-11-30T07:07:32.838Z,81.94
2022-11-30T07:10:01.476Z,81.87
2022-11-30T07:12:29.950Z,82.11
2022-11-30T07:14:58.425Z,81.91
2022-11-30T07:17:27.416Z,81.99
2022-11-30T07:19:56.654Z,81.70
2022-11-30T07:22:26.146Z,82.10
2022-11-30T07:25:16.168Z,81.95
2022-11-30T07:27:44.598Z,82.01
2022-11-30T07:30:14.675Z,81.95
2022-11-30T07:32:43.262Z,82.01
2022-11-30T07:35:13.774Z,81.97
2022-11-30T07:37:42.456Z,82.05
2022-11-30T07:40:14.508Z,81.95
2022-11-30T07:42:46.116Z,81.90
2022-11-30T07:45:15.573Z,81.72
2022-11-30T07:47:44.024Z,81.76
2022-11-30T07:50:36.899Z,81.60
2022-11-30T07:53:05.506Z,81.63
2022-11-30T07:55:34.154Z,81.72
2022-11-30T07:58:02.802Z,81.49
2022-11-30T08:00:31.715Z,81.59
2022-11-30T08:03:00.246Z,81.67
2022-11-30T08:05:28.773Z,81.64
2022-11-30T08:07:57.587Z,81.50
2022-11-30T08:10:28.779Z,81.33
2022-11-30T08:12:57.377Z,81.61
2022-11-30T08:15:32.140Z,81.72
2022-11-30T08:18:04.887Z,81.67
2022-11-30T08:20:33.586Z,81.39
2022-11-30T08:23:04.746Z,81.33
2022-11-30T08:25:34.632Z,81.41
2022-11-30T08:28:03.725Z,81.02
2022-11-30T08:30:35.495Z,81.23
2022-11-30T08:33:04.586Z,81.52
2022-11-30T08:35:33.302Z,81.13
2022-11-30T08:38:01.927Z,81.59
2022-11-30T08:40:30.542Z,81.47
2022-11-30T08:42:59.768Z,81.40
2022-11-30T08:45:28.219Z,81.29
2022-11-30T08:47:58.636Z,81.05
2022-11-30T08:50:27.201Z,80.91
2022-11-30T08:52:56.126Z,81.27
2022-11-30T08:55:53.041Z,80.99
2022-11-30T08:58:21.701Z,81.28
2022-11-30T09:03:23.789Z,81.19
2022-11-30T09:05:52.406Z,80.94
2022-11-30T09:08:20.843Z,81.11
2022-11-30T09:10:49.301Z,80.89
2022-11-30T09:13:17.840Z,81.14
2022-11-30T09:15:54.958Z,81.25
2022-11-30T09:18:23.563Z,81.52
2022-11-30T09:20:57.098Z,81.34
2022-11-30T09:23:26.005Z,81.04
2022-11-30T09:25:57.236Z,81.14
2022-11-30T09:28:26.718Z,81.26
2022-11-30T09:31:01.138Z,81.31
2022-11-30T09:33:30.838Z,81.13
2022-11-30T09:36:01.229Z,81.41
2022-11-30T09:38:29.776Z,81.48
2022-11-30T09:41:00.480Z,80.87
2022-11-30T09:43:42.280Z,81.22
2022-11-30T09:46:11.277Z,80.88
2022-11-30T09:48:53.650Z,80.71
2022-11-30T09:51:25.884Z,80.91
2022-11-30T09:54:18.682Z,80.67
2022-11-30T09:56:51.414Z,80.41
2022-11-30T09:59:24.307Z,80.57
2022-11-30T10:01:56.882Z,80.91
2022-11-30T10:04:27.974Z,80.51
2022-11-30T10:07:08.525Z,80.64
2022-11-30T10:10:09.287Z,80.79
2022-11-30T10:12:43.545Z,80.78
2022-11-30T10:15:24.829Z,80.92
2022-11-30T10:17:57.639Z,80.62
2022-11-30T10:20:49.642Z,80.62
2022-11-30T10:23:30.839Z,80.57
2022-11-30T10:26:08.485Z,80.57
2022-11-30T10:28:51.024Z,80.29
2022-11-30T10:31:27.981Z,80.96
2022-11-30T10:34:06.161Z,81.00
2022-11-30T10:36:39.495Z,80.58
2022-11-30T10:39:18.857Z,80.61
2022-11-30T10:41:52.108Z,80.35
2022-11-30T10:44:26.840Z,80.55
2022-11-30T10:47:00.813Z,80.62
2022-11-30T10:49:31.335Z,80.38
2022-11-30T10:52:03.340Z,80.38
2022-11-30T10:54:34.281Z,80.36
2022-11-30T10:57:06.971Z,80.39
2022-11-30T10:59:42.252Z,80.37
2022-11-30T11:02:37.187Z,80.39
2022-11-30T11:05:25.921Z,80.30
2022-11-30T11:08:06.264Z,80.73
2022-11-30T11:10:44.715Z,80.39
2022-11-30T11:13:17.952Z,80.49
2022-11-30T11:15:57.404Z,80.60
2022-11-30T11:18:28.324Z,80.51
2022-11-30T11:21:06.980Z,80.44
2022-11-30T11:23:38.566Z,80.51
2022-11-30T11:26:15.466Z,80.24
2022-11-30T11:28:46.756Z,80.29
2022-11-30T11:31:32.628Z,80.20
2022-11-30T11:34:03.616Z,80.07
2022-11-30T11:36:35.985Z,80.08
2022-11-30T11:39:25.844Z,80.03
2022-11-30T11:41:55.047Z,80.24
2022-11-30T11:44:27.368Z,79.75
2022-11-30T11:46:58.002Z,79.94
2022-11-30T11:49:29.440Z,79.97
2022-11-30T11:52:02.641Z,79.59
2022-11-30T11:54:35.569Z,79.71
2022-11-30T11:57:08.914Z,79.55
2022-11-30T11:59:47.265Z,79.71
2022-11-30T12:02:27.987Z,80.07
2022-11-30T12:05:00.341Z,79.92
2022-11-30T12:07:32.889Z,80.28
2022-11-30T12:10:43.473Z,80.22
2022-11-30T12:13:12.805Z,79.66
2022-11-30T12:15:51.940Z,79.99
2022-11-30T12:18:24.496Z,79.97
2022-11-30T12:21:00.415Z,80.15
2022-11-30T12:23:54.015Z,80.23
2022-11-30T12:26:34.074Z,80.33
2022-11-30T12:29:19.173Z,80.07
2022-11-30T12:32:01.549Z,79.90
2022-11-30T12:34:45.247Z,79.66
2022-11-30T12:37:23.322Z,79.94
2022-11-30T12:40:03.008Z,79.69
2022-11-30T12:42:43.468Z,79.97
2022-11-30T12:45:21.828Z,80.26
2022-11-30T12:48:01.367Z,79.97
2022-11-30T12:50:41.836Z,80.29
2022-11-30T12:53:20.229Z,79.99
2022-11-30T12:56:05.720Z,80.03
2022-11-30T12:58:43.866Z,80.01
2022-11-30T13:01:27.584Z,79.90
2022-11-30T13:04:03.891Z,79.75
2022-11-30T13:06:37.278Z,80.01
2022-11-30T13:09:23.437Z,79.87
2022-11-30T13:11:57.040Z,80.17
2022-11-30T13:14:27.998Z,79.82
2022-11-30T13:17:02.007Z,79.82
2022-11-30T13:19:48.349Z,79.73
2022-11-30T13:22:23.544Z,79.65
2022-11-30T13:25:02.504Z,80.08
2022-11-30T13:27:38.105Z,79.78
2022-11-30T13:30:27.295Z,79.78
2022-11-30T13:32:58.465Z,80.02
2022-11-30T13:35:53.629Z,79.43
2022-11-30T13:38:39.993Z,79.83
2022-11-30T13:41:10.517Z,79.76
2022-11-30T13:43:44.961Z,79.90
2022-11-30T13:46:20.519Z,79.40
2022-11-30T13:48:49.638Z,79.37
2022-11-30T13:51:35.087Z,79.24
2022-11-30T13:54:35.629Z,79.74
2022-11-30T13:57:17.005Z,79.48
2022-11-30T13:59:50.935Z,79.62
2022-11-30T14:03:01.292Z,79.68
2022-11-30T14:05:40.847Z,79.86
2022-11-30T14:08:38.901Z,79.61
2022-11-30T14:11:36.088Z,79.55
2022-11-30T14:14:45.146Z,79.34
2022-11-30T14:17:21.427Z,79.60
2022-11-30T14:19:55.024Z,79.57
2022-11-30T14:22:25.446Z,79.94
2022-11-30T14:24:55.710Z,79.94
2022-11-30T14:27:27.154Z,79.67
2022-11-30T14:30:00.859Z,79.41
2022-11-30T14:32:42.077Z,79.61
2022-11-30T14:35:16.780Z,79.41
2022-11-30T14:37:52.116Z,79.25
2022-11-30T14:40:24.824Z,79.29
2022-11-30T14:42:55.645Z,78.90
2022-11-30T14:45:27.855Z,79.10
2022-11-30T14:48:07.934Z,79.17
2022-11-30T14:50:42.060Z,79.37
2022-11-30T14:53:26.604Z,79.37
2022-11-30T14:55:59.947Z,79.65
2022-11-30T14:58:37.389Z,79.47
2022-11-30T15:01:20.986Z,79.25
2022-11-30T15:04:00.209Z,79.24
2022-11-30T15:06:32.054Z,79.46
2022-11-30T15:09:02.227Z,79.56
2022-11-30T15:11:31.672Z,79.35
2022-11-30T15:14:09.982Z,79.28
2022-11-30T15:16:46.753Z,79.47
2022-11-30T15:19:24.477Z,79.23
2022-11-30T15:21:54.780Z,79.40
2022-11-30T15:24:23.469Z,79.23
2022-11-30T15:26:57.024Z,79.22
2022-11-30T15:29:29.314Z,79.69
2022-11-30T15:31:59.875Z,79.07
2022-11-30T15:34:36.201Z,79.34
2022-11-30T15:37:05.661Z,79.48
2022-11-30T15:39:34.526Z,79.42
2022-11-30T15:42:05.685Z,79.50
2022-11-30T15:44:41.061Z,79.16
2022-11-30T15:47:27.621Z,79.11
2022-11-30T15:49:56.708Z,79.28
2022-11-30T15:52:30.575Z,79.49
2022-11-30T15:55:03.072Z,79.83
2022-11-30T15:57:58.711Z,79.53
2022-11-30T16:00:28.619Z,79.85
2022-11-30T16:03:08.612Z,79.88
2022-11-30T16:05:38.366Z,79.63
2022-11-30T16:08:16.248Z,79.56
2022-11-30T16:10:44.883Z,79.64
2022-11-30T16:13:18.984Z,79.79
2022-11-30T16:15:49.382Z,79.75
2022-11-30T16:18:20.122Z,79.66
2022-11-30T16:20:51.533Z,79.40
2022-11-30T16:23:20.469Z,79.27
2022-11-30T16:25:50.176Z,79.38
2022-11-30T16:28:20.445Z,79.50
2022-11-30T16:30:49.890Z,79.26
2022-11-30T16:33:39.793Z,79.49
2022-11-30T16:36:15.880Z,79.60
2022-11-30T16:38:48.115Z,79.51
2022-11-30T16:41:19.717Z,79.34
2022-11-30T16:43:50.621Z,79.58
2022-11-30T16:46:22.986Z,79.57
2022-11-30T16:48:52.068Z,79.46
2022-11-30T16:51:23.751Z,79.49
2022-11-30T16:53:52.422Z,79.62
2022-11-30T16:56:21.679Z,79.35
2022-11-30T16:58:52.608Z,79.32
2022-11-30T17:01:30.294Z,79.30
2022-11-30T17:04:09.874Z,79.52
2022-11-30T17:06:38.393Z,79.40
2022-11-30T17:09:11.629Z,79.38
2022-11-30T17:11:40.745Z,79.51
2022-11-30T17:14:11.949Z,79.27
2022-11-30T17:16:40.925Z,79.34
2022-11-30T17:19:09.549Z,79.34
2022-11-30T17:21:53.361Z,79.18
2022-11-30T17:24:21.971Z,79.63
2022-11-30T17:26:50.687Z,79.49
2022-11-30T17:29:22.258Z,79.65
2022-11-30T17:31:51.251Z,79.31
2022-11-30T17:34:22.315Z,79.55
2022-11-30T17:36:50.839Z,79.31
2022-11-30T17:39:19.301Z,79.01
2022-11-30T17:41:50.275Z,79.45
2022-11-30T17:44:19.050Z,79.24
2022-11-30T17:46:48.528Z,78.91
2022-11-30T17:49:17.774Z,79.21
2022-11-30T17:51:46.333Z,79.01
2022-11-30T17:54:15.256Z,78.91
2022-11-30T17:56:43.877Z,79.21
2022-11-30T17:59:25.099Z,79.12
2022-11-30T18:01:54.020Z,79.42
2022-11-30T18:04:23.028Z,79.44
2022-11-30T18:06:51.941Z,79.08
2022-11-30T18:09:20.461Z,79.28
2022-11-30T18:11:48.917Z,79.50
2022-11-30T18:14:17.529Z,78.90
2022-11-30T18:16:46.061Z,79.26
2022-11-30T18:19:14.966Z,78.81
2022-11-30T18:22:02.314Z,78.73
2022-11-30T18:24:31.316Z,78.80
2022-11-30T18:27:00.043Z,79.23
2022-11-30T18:29:57.472Z,78.81
2022-11-30T18:32:26.069Z,78.91
2022-11-30T18:34:54.969Z,79.15
2022-11-30T18:37:23.441Z,79.31
2022-11-30T18:39:52.078Z,78.97
2022-11-30T18:42:22.008Z,79.13
2022-11-30T18:44:50.718Z,79.04
2022-11-30T18:47:19.548Z,79.01
2022-11-30T18:49:49.108Z,78.78
2022-11-30T18:52:17.947Z,79.05
2022-11-30T18:54:46.861Z,78.72
2022-11-30T18:57:15.646Z,78.95
2022-11-30T18:59:44.258Z,79.06
2022-11-30T19:02:13.086Z,78.78
2022-11-30T19:04:42.617Z,79.09
2022-11-30T19:07:11.563Z,79.03
2022-11-30T19:09:40.090Z,79.12
2022-11-30T19:12:08.600Z,79.15
2022-11-30T19:15:05.570Z,79.15
2022-11-30T19:17:34.098Z,79.06
2022-11-30T19:20:03.458Z,79.22
2022-11-30T19:22:32.083Z,79.14
2022-11-30T19:25:01.092Z,79.38
2022-11-30T19:27:29.591Z,79.47
2022-11-30T19:29:59.311Z,79.52
2022-11-30T19:32:27.936Z,79.68
2022-11-30T19:34:56.423Z,79.37
2022-11-30T19:37:25.139Z,79.55
2022-11-30T19:39:53.747Z,79.66
2022-11-30T19:42:24.450Z,79.57
2022-11-30T19:44:53.086Z,79.77
2022-11-30T19:47:21.634Z,79.69
2022-11-30T19:49:50.184Z,79.70
2022-11-30T19:52:19.842Z,79.81
2022-11-30T19:54:48.565Z,79.95
2022-11-30T19:57:17.251Z,80.21
2022-11-30T19:59:56.477Z,79.91
2022-11-30T20:02:28.098Z,80.02
2022-11-30T20:04:59.035Z,80.29
2022-11-30T20:07:27.661Z,80.30
2022-11-30T20:09:56.193Z,80.09
2022-11-30T20:12:24.764Z,80.03
2022-11-30T20:14:54.275Z,80.15
2022-11-30T20:17:27.152Z,80.16
2022-11-30T20:19:55.657Z,80.20
2022-11-30T20:22:24.120Z,80.30
2022-11-30T20:24:53.446Z,80.13
2022-11-30T20:27:24.092Z,80.03
2022-11-30T20:29:52.905Z,79.87
2022-11-30T20:32:21.740Z,80.25
2022-11-30T20:35:03.359Z,80.43
2022-11-30T20:37:32.160Z,80.44
2022-11-30T20:40:01.061Z,80.68
2022-11-30T20:42:29.679Z,80.24
2022-11-30T20:44:58.198Z,80.28
2022-11-30T20:47:33.385Z,80.47
2022-11-30T20:50:07.219Z,80.31
2022-11-30T20:52:36.137Z,80.54
2022-11-30T20:55:05.921Z,80.61
2022-11-30T20:57:34.424Z,80.62
2022-11-30T21:00:10.109Z,80.24
2022-11-30T21:02:41.427Z,80.35
2022-11-30T21:05:10.267Z,80.64
2022-11-30T21:07:39.001Z,80.67
2022-11-30T21:10:10.787Z,80.39
2022-11-30T21:12:39.358Z,80.49
2022-11-30T21:15:10.197Z,80.43
2022-11-30T21:17:38.645Z,80.49
2022-11-30T21:20:09.857Z,80.56
2022-11-30T21:22:38.305Z,80.89
2022-11-30T21:25:08.434Z,80.76
2022-11-30T21:27:36.884Z,80.49
2022-11-30T21:30:07.855Z,80.65
2022-11-30T21:32:36.304Z,80.47
2022-11-30T21:35:06.382Z,80.64
2022-11-30T21:37:35.034Z,80.81
2022-11-30T21:40:04.015Z,80.78
2022-11-30T21:42:32.472Z,80.94
2022-11-30T21:45:01.108Z,81.03
2022-11-30T21:47:31.682Z,81.01
2022-11-30T21:50:00.127Z,81.06
2022-11-30T21:52:28.836Z,81.16
2022-11-30T21:54:57.528Z,81.11
2022-11-30T21:57:26.527Z,81.05
2022-11-30T21:59:55.224Z,81.42
2022-11-30T22:02:23.768Z,81.39
2022-11-30T22:04:52.856Z,81.26
2022-11-30T22:07:30.936Z,81.34
2022-11-30T22:09:59.647Z,81.41
2022-11-30T22:12:28.143Z,81.34
2022-11-30T22:14:56.703Z,81.37
2022-11-30T22:17:25.354Z,81.42
2022-11-30T22:19:53.872Z,81.14
2022-11-30T22:22:22.727Z,81.25
2022-11-30T22:24:51.517Z,81.17
2022-11-30T22:27:23.607Z,80.98
2022-11-30T22:29:52.580Z,81.20
2022-11-30T22:32:21.693Z,81.19
2022-11-30T22:34:50.357Z,81.02
2022-11-30T22:37:18.819Z,81.08
2022-11-30T22:39:47.540Z,81.04
2022-11-30T22:42:16.461Z,80.86
2022-11-30T22:44:44.889Z,81.14
2022-11-30T22:47:14.330Z,81.11
2022-11-30T22:49:45.764Z,81.18
2022-11-30T22:52:14.577Z,80.86
2022-11-30T22:54:43.283Z,80.72
2022-11-30T22:57:12.297Z,81.05
2022-11-30T22:59:41.334Z,80.95
2022-11-30T23:02:11.120Z,81.06
2022-11-30T23:04:39.933Z,80.84
2022-11-30T23:07:08.652Z,80.68
2022-11-30T23:09:39.957Z,80.65
2022-11-30T23:12:08.391Z,80.78
2022-11-30T23:14:36.918Z,80.88
2022-11-30T23:17:05.386Z,80.61
2022-11-30T23:19:33.915Z,80.56
2022-11-30T23:22:02.656Z,80.65
2022-11-30T23:24:31.237Z,80.48
2022-11-30T23:26:59.873Z,80.54
2022-11-30T23:29:28.814Z,80.92
2022-11-30T23:31:57.774Z,80.53
2022-11-30T23:34:27.192Z,80.67
2022-11-30T23:36:56.019Z,80.71
2022-11-30T23:39:24.556Z,80.67
2022-11-30T23:41:53.030Z,80.44
2022-11-30T23:44:21.468Z,80.47
2022-11-30T23:46:50.229Z,80.37
2022-11-30T23:49:19.230Z,80.44
2022-11-30T23:51:47.699Z,80.20
2022-11-30T23:54:16.133Z,79.99
2022-11-30T23:56:44.602Z,80.37
2022-11-30T23:59:13.083Z,80.19
